createdAt,value
2023-04-16T00:01:50.451Z,96.78
2023-04-16T00:04:17.226Z,95.07
2023-04-16T00:06:43.923Z,96.05
2023-04-16T00:09:10.762Z,94.85
2023-04-16T00:11:37.521Z,93.28
2023-04-16T00:14:04.742Z,96.55
2023-04-16T00:16:31.533Z,96.82
2023-04-16T00:18:58.254Z,95.78
2023-04-16T00:21:24.882Z,102.20
2023-04-16T00:23:51.533Z,96.40
2023-04-16T00:26:18.138Z,97.40
2023-04-16T00:28:44.787Z,95.40
2023-04-16T00:31:11.475Z,95.50
2023-04-16T00:33:38.110Z,95.80
2023-04-16T00:36:06.015Z,97.68
2023-04-16T00:38:32.792Z,98.68
2023-04-16T00:40:59.624Z,100.15
2023-04-16T00:43:26.902Z,96.28
2023-04-16T00:45:56.634Z,95.65
2023-04-16T00:48:23.632Z,98.53
2023-04-16T00:50:50.362Z,94.22
2023-04-16T00:53:17.044Z,95.20
2023-04-16T00:55:44.481Z,96.85
2023-04-16T00:58:11.498Z,95.57
2023-04-16T01:00:38.118Z,97.97
2023-04-16T01:03:05.520Z,96.22
2023-04-16T01:05:32.342Z,96.20
2023-04-16T01:08:00.740Z,94.57
2023-04-16T01:10:27.456Z,98.03
2023-04-16T01:12:54.141Z,97.97
2023-04-16T01:15:20.778Z,100.15
2023-04-16T01:17:47.592Z,97.07
2023-04-16T01:20:14.500Z,96.47
2023-04-16T01:22:41.149Z,98.38
2023-04-16T01:25:07.932Z,95.28
2023-04-16T01:27:34.616Z,97.22
2023-04-16T01:30:01.237Z,98.35
2023-04-16T01:32:27.963Z,94.90
2023-04-16T01:34:54.663Z,97.60
2023-04-16T01:37:21.308Z,101.10
2023-04-16T01:39:47.953Z,97.88
2023-04-16T01:42:14.593Z,97.50
2023-04-16T01:44:41.211Z,100.45
2023-04-16T01:47:08.435Z,96.55
2023-04-16T01:49:35.931Z,97.45
2023-04-16T01:52:02.532Z,97.63
2023-04-16T01:54:29.165Z,96.90
2023-04-16T01:56:55.858Z,98.88
2023-04-16T01:59:22.514Z,98.22
2023-04-16T02:01:49.268Z,96.78
2023-04-16T02:04:16.257Z,97.03
2023-04-16T02:06:42.935Z,99.57
2023-04-16T02:09:09.763Z,100.30
2023-04-16T02:11:36.587Z,103.88
2023-04-16T02:14:03.256Z,100.25
2023-04-16T02:16:29.940Z,96.93
2023-04-16T02:18:56.588Z,98.35
2023-04-16T02:21:23.236Z,98.50
2023-04-16T02:23:51.654Z,100.10
2023-04-16T02:26:18.510Z,99.80
2023-04-16T02:28:45.170Z,99.88
2023-04-16T02:31:11.791Z,97.57
2023-04-16T02:33:38.485Z,99.13
2023-04-16T02:36:05.472Z,98.88
2023-04-16T02:38:32.122Z,100.75
2023-04-16T02:40:59.349Z,99.63
2023-04-16T02:43:25.996Z,99.85
2023-04-16T02:45:52.674Z,100.13
2023-04-16T02:48:19.438Z,100.10
2023-04-16T02:50:46.096Z,101.47
2023-04-16T02:53:12.785Z,103.47
2023-04-16T02:55:39.441Z,98.40
2023-04-16T02:58:06.054Z,99.30
2023-04-16T03:00:32.655Z,103.53
2023-04-16T03:02:59.343Z,103.65
2023-04-16T03:05:26.035Z,99.78
2023-04-16T03:07:56.537Z,100.82
2023-04-16T03:10:24.090Z,98.72
2023-04-16T03:12:50.911Z,100.68
2023-04-16T03:15:17.679Z,101.47
2023-04-16T03:17:44.391Z,101.45
2023-04-16T03:20:11.439Z,100.00
2023-04-16T03:22:39.349Z,99.60
2023-04-16T03:25:07.266Z,99.65
2023-04-16T03:27:34.735Z,104.93
2023-04-16T03:30:01.927Z,101.25
2023-04-16T03:32:28.693Z,100.70
2023-04-16T03:34:55.316Z,99.57
2023-04-16T03:37:21.978Z,100.55
2023-04-16T03:39:48.620Z,99.72
2023-04-16T03:42:15.383Z,101.43
2023-04-16T03:44:42.156Z,99.93
2023-04-16T03:47:08.832Z,101.65
2023-04-16T03:49:35.463Z,100.72
2023-04-16T03:52:02.762Z,100.05
2023-04-16T03:54:29.442Z,100.15
2023-04-16T03:56:57.025Z,100.35
2023-04-16T03:59:23.690Z,98.65
2023-04-16T04:01:50.780Z,100.60
2023-04-16T04:04:17.648Z,98.57
2023-04-16T04:06:46.361Z,98.47
2023-04-16T04:09:13.687Z,99.32
2023-04-16T04:11:40.340Z,100.55
2023-04-16T04:14:07.048Z,100.78
2023-04-16T04:16:33.852Z,100.13
2023-04-16T04:19:01.036Z,99.78
2023-04-16T04:21:28.788Z,100.85
2023-04-16T04:23:56.117Z,99.55
2023-04-16T04:26:22.877Z,102.35
2023-04-16T04:28:49.974Z,97.90
2023-04-16T04:31:16.597Z,99.00
2023-04-16T04:33:43.252Z,100.53
2023-04-16T04:36:09.880Z,103.20
2023-04-16T04:38:36.576Z,98.60
2023-04-16T04:41:03.216Z,100.25
2023-04-16T04:43:29.843Z,100.88
2023-04-16T04:45:56.502Z,101.50
2023-04-16T04:48:26.550Z,100.88
2023-04-16T04:50:53.836Z,103.63
2023-04-16T04:53:20.686Z,103.43
2023-04-16T04:55:50.929Z,99.25
2023-04-16T04:58:19.706Z,101.68
2023-04-16T05:00:46.348Z,104.93
2023-04-16T05:03:13.182Z,100.20
2023-04-16T05:05:41.086Z,101.00
2023-04-16T05:08:07.707Z,101.45
2023-04-16T05:10:34.275Z,100.43
2023-04-16T05:13:01.080Z,102.78
2023-04-16T05:15:27.837Z,103.72
2023-04-16T05:17:56.170Z,100.25
2023-04-16T05:20:25.973Z,102.47
2023-04-16T05:22:52.662Z,101.65
2023-04-16T05:25:19.331Z,99.00
2023-04-16T05:27:45.996Z,101.18
2023-04-16T05:30:12.774Z,102.45
2023-04-16T05:32:41.003Z,101.72
2023-04-16T05:35:08.005Z,99.75
2023-04-16T05:37:34.658Z,97.38
2023-04-16T05:40:01.342Z,101.05
2023-04-16T05:42:28.048Z,100.25
2023-04-16T05:44:54.772Z,101.00
2023-04-16T05:47:21.470Z,99.35
2023-04-16T05:49:48.136Z,99.35
2023-04-16T05:52:15.303Z,100.78
2023-04-16T05:54:41.956Z,101.40
2023-04-16T05:57:08.595Z,99.70
2023-04-16T05:59:35.245Z,100.53
2023-04-16T06:02:01.930Z,103.53
2023-04-16T06:04:29.955Z,97.72
2023-04-16T06:06:56.793Z,101.70
2023-04-16T06:09:23.435Z,101.97
2023-04-16T06:11:50.099Z,104.97
2023-04-16T06:14:16.852Z,102.45
2023-04-16T06:16:43.475Z,102.90
2023-04-16T06:19:10.432Z,101.65
2023-04-16T06:21:37.962Z,101.90
2023-04-16T06:24:04.739Z,108.45
2023-04-16T06:26:31.382Z,103.20
2023-04-16T06:28:57.983Z,107.22
2023-04-16T06:31:24.752Z,102.70
2023-04-16T06:33:51.373Z,103.25
2023-04-16T06:36:18.017Z,101.53
2023-04-16T06:38:44.712Z,105.20
2023-04-16T06:41:11.352Z,103.22
2023-04-16T06:43:38.036Z,104.78
2023-04-16T06:46:04.720Z,105.18
2023-04-16T06:48:31.626Z,103.68
2023-04-16T06:50:58.298Z,103.45
2023-04-16T06:53:24.944Z,99.43
2023-04-16T06:55:51.823Z,108.05
2023-04-16T06:58:18.439Z,103.95
2023-04-16T07:00:45.444Z,102.65
2023-04-16T07:03:12.465Z,101.93
2023-04-16T07:05:39.289Z,101.55
2023-04-16T07:08:06.009Z,105.90
2023-04-16T07:10:32.637Z,103.72
2023-04-16T07:13:01.467Z,104.35
2023-04-16T07:15:28.322Z,107.10
2023-04-16T07:17:55.125Z,104.97
2023-04-16T07:20:21.829Z,104.45
2023-04-16T07:22:48.527Z,102.30
2023-04-16T07:25:15.283Z,102.97
2023-04-16T07:27:41.899Z,105.28
2023-04-16T07:30:09.221Z,104.30
2023-04-16T07:32:36.165Z,104.45
2023-04-16T07:35:03.794Z,105.90
2023-04-16T07:37:30.901Z,103.65
2023-04-16T07:39:57.778Z,101.35
2023-04-16T07:42:24.474Z,100.53
2023-04-16T07:44:51.140Z,99.72
2023-04-16T07:47:17.815Z,99.03
2023-04-16T07:49:44.477Z,99.95
2023-04-16T07:52:11.113Z,101.60
2023-04-16T07:54:37.734Z,101.07
2023-04-16T07:57:04.309Z,100.40
2023-04-16T07:59:31.152Z,98.32
2023-04-16T08:01:57.972Z,97.20
2023-04-16T08:04:25.738Z,100.47
2023-04-16T08:06:54.140Z,98.18
2023-04-16T08:09:22.341Z,99.65
2023-04-16T08:11:49.794Z,99.03
2023-04-16T08:14:17.526Z,100.43
2023-04-16T08:16:44.558Z,99.53
2023-04-16T08:19:11.345Z,101.50
2023-04-16T08:21:38.159Z,97.13
2023-04-16T08:24:04.885Z,96.32
2023-04-16T08:26:31.518Z,101.50
2023-04-16T08:28:58.159Z,96.18
2023-04-16T08:31:24.936Z,98.13
2023-04-16T08:33:51.611Z,102.38
2023-04-16T08:36:18.298Z,98.47
2023-04-16T08:38:44.963Z,106.13
2023-04-16T08:41:13.174Z,99.45
2023-04-16T08:43:44.932Z,99.53
2023-04-16T08:46:12.554Z,98.35
2023-04-16T08:48:41.881Z,101.18
2023-04-16T08:51:10.832Z,98.85
2023-04-16T08:53:49.174Z,99.10
2023-04-16T08:56:18.096Z,100.72
2023-04-16T08:58:47.499Z,104.07
2023-04-16T09:01:15.261Z,105.10
2023-04-16T09:03:42.331Z,101.93
2023-04-16T09:06:10.044Z,100.03
2023-04-16T09:08:38.068Z,105.10
2023-04-16T09:11:05.384Z,101.88
2023-04-16T09:13:32.362Z,102.32
2023-04-16T09:16:00.205Z,100.30
2023-04-16T09:18:28.082Z,100.53
2023-04-16T09:20:56.321Z,101.38
2023-04-16T09:23:23.211Z,99.82
2023-04-16T09:25:49.828Z,100.95
2023-04-16T09:28:38.566Z,100.50
2023-04-16T09:31:16.834Z,100.18
2023-04-16T09:34:00.400Z,104.65
2023-04-16T09:36:27.832Z,104.38
2023-04-16T09:38:57.405Z,99.88
2023-04-16T09:41:29.512Z,100.43
2023-04-16T09:44:01.810Z,98.90
2023-04-16T09:46:35.119Z,102.65
2023-04-16T09:49:14.748Z,101.68
2023-04-16T09:51:42.914Z,100.28
2023-04-16T09:54:09.887Z,103.07
2023-04-16T09:56:57.007Z,106.20
2023-04-16T09:59:24.436Z,97.90
2023-04-16T10:01:53.421Z,102.63
2023-04-16T10:04:48.314Z,99.50
2023-04-16T10:07:15.251Z,101.18
2023-04-16T10:09:42.002Z,98.43
2023-04-16T10:12:09.450Z,99.20
2023-04-16T10:14:36.249Z,99.68
2023-04-16T10:17:06.032Z,101.05
2023-04-16T10:19:33.757Z,101.50
2023-04-16T10:22:01.019Z,101.53
2023-04-16T10:24:29.533Z,104.55
2023-04-16T10:26:57.041Z,99.55
2023-04-16T10:29:25.341Z,96.85
2023-04-16T10:31:53.269Z,99.97
2023-04-16T10:34:21.340Z,104.15
2023-04-16T10:36:52.921Z,101.28
2023-04-16T10:39:24.507Z,102.40
2023-04-16T10:42:06.119Z,102.53
2023-04-16T10:44:33.298Z,103.20
2023-04-16T10:46:59.952Z,102.85
2023-04-16T10:49:27.140Z,102.10
2023-04-16T10:52:07.343Z,100.90
2023-04-16T10:54:36.328Z,100.82
2023-04-16T10:57:14.877Z,100.97
2023-04-16T10:59:43.367Z,101.00
2023-04-16T11:02:19.557Z,100.72
2023-04-16T11:04:48.463Z,100.65
2023-04-16T11:07:19.689Z,100.53
2023-04-16T11:09:56.517Z,100.63
2023-04-16T11:12:27.623Z,100.93
2023-04-16T11:15:03.231Z,103.30
2023-04-16T11:17:39.101Z,100.55
2023-04-16T11:20:19.542Z,101.43
2023-04-16T11:22:48.698Z,103.53
2023-04-16T11:25:29.786Z,101.50
2023-04-16T11:27:59.070Z,104.03
2023-04-16T11:30:34.525Z,103.10
2023-04-16T11:33:19.114Z,104.65
2023-04-16T11:35:55.987Z,104.20
2023-04-16T11:38:33.759Z,102.88
2023-04-16T11:41:00.438Z,103.45
2023-04-16T11:43:27.076Z,108.32
2023-04-16T11:46:10.258Z,108.13
2023-04-16T11:48:53.751Z,105.65
2023-04-16T11:51:21.738Z,105.70
2023-04-16T11:53:50.886Z,103.88
2023-04-16T11:56:26.121Z,104.82
2023-04-16T11:59:22.971Z,102.72
2023-04-16T12:01:50.940Z,104.93
2023-04-16T12:04:20.816Z,106.20
2023-04-16T12:07:11.824Z,108.18
2023-04-16T12:09:43.030Z,104.57
2023-04-16T12:12:30.885Z,108.50
2023-04-16T12:15:00.049Z,105.35
2023-04-16T12:17:26.844Z,105.93
2023-04-16T12:19:57.306Z,104.65
2023-04-16T12:22:38.944Z,100.80
2023-04-16T12:25:13.973Z,102.57
2023-04-16T12:27:43.535Z,105.28
2023-04-16T12:30:10.614Z,106.05
2023-04-16T12:32:37.412Z,105.07
2023-04-16T12:35:05.218Z,101.82
2023-04-16T12:37:32.106Z,105.53
2023-04-16T12:39:58.704Z,105.18
2023-04-16T12:42:25.370Z,100.50
2023-04-16T12:44:51.972Z,104.88
2023-04-16T12:47:18.819Z,106.65
2023-04-16T12:49:45.703Z,105.28
2023-04-16T12:52:12.372Z,104.05
2023-04-16T12:54:39.103Z,108.50
2023-04-16T12:57:05.859Z,106.10
2023-04-16T12:59:32.500Z,111.18
2023-04-16T13:02:01.769Z,105.63
2023-04-16T13:04:28.638Z,106.22
2023-04-16T13:06:55.392Z,108.15
2023-04-16T13:09:22.043Z,110.88
2023-04-16T13:11:48.675Z,107.18
2023-04-16T13:14:15.270Z,108.65
2023-04-16T13:16:41.899Z,105.38
2023-04-16T13:19:08.678Z,109.68
2023-04-16T13:21:35.882Z,111.20
2023-04-16T13:24:02.593Z,110.70
2023-04-16T13:26:29.222Z,106.82
2023-04-16T13:28:55.900Z,110.00
2023-04-16T13:31:22.774Z,107.65
2023-04-16T13:33:50.634Z,106.00
2023-04-16T13:36:17.272Z,106.30
2023-04-16T13:38:43.910Z,109.80
2023-04-16T13:41:10.622Z,107.28
2023-04-16T13:43:37.703Z,107.00
2023-04-16T13:46:04.462Z,104.38
2023-04-16T13:48:31.139Z,103.90
2023-04-16T13:50:57.738Z,106.63
2023-04-16T13:53:24.372Z,102.10
2023-04-16T13:55:50.991Z,104.93
2023-04-16T13:58:17.643Z,102.93
2023-04-16T14:00:44.401Z,109.32
2023-04-16T14:03:11.255Z,107.40
2023-04-16T14:05:38.025Z,103.75
2023-04-16T14:08:04.701Z,107.28
2023-04-16T14:10:32.509Z,104.82
2023-04-16T14:12:59.296Z,101.00
2023-04-16T14:15:27.418Z,105.03
2023-04-16T14:17:54.197Z,105.43
2023-04-16T14:20:21.188Z,102.22
2023-04-16T14:22:47.902Z,101.30
2023-04-16T14:25:14.552Z,102.28
2023-04-16T14:27:41.488Z,101.38
2023-04-16T14:30:08.673Z,102.82
2023-04-16T14:32:36.226Z,100.32
2023-04-16T14:35:03.571Z,103.50
2023-04-16T14:37:31.035Z,101.45
2023-04-16T14:39:57.684Z,102.28
2023-04-16T14:42:24.307Z,99.50
2023-04-16T14:44:52.030Z,99.25
2023-04-16T14:47:18.653Z,101.40
2023-04-16T14:49:45.633Z,101.75
2023-04-16T14:52:12.483Z,108.00
2023-04-16T14:54:39.170Z,104.93
2023-04-16T14:57:05.943Z,108.80
2023-04-16T14:59:32.761Z,101.82
2023-04-16T15:01:59.724Z,102.65
2023-04-16T15:04:26.595Z,103.05
2023-04-16T15:09:22.020Z,100.07
2023-04-16T15:11:48.629Z,103.13
2023-04-16T15:14:15.345Z,100.45
2023-04-16T15:16:42.086Z,101.88
2023-04-16T15:19:09.166Z,100.43
2023-04-16T15:21:35.974Z,100.95
2023-04-16T15:24:02.943Z,105.95
2023-04-16T15:26:30.294Z,102.20
2023-04-16T15:28:56.928Z,101.25
2023-04-16T15:31:23.637Z,101.45
2023-04-16T15:33:50.432Z,100.78
2023-04-16T15:36:17.132Z,99.40
2023-04-16T15:38:43.800Z,100.88
2023-04-16T15:41:10.860Z,106.40
2023-04-16T15:43:37.782Z,102.32
2023-04-16T15:46:04.603Z,102.82
2023-04-16T15:48:31.378Z,104.10
2023-04-16T15:50:58.077Z,99.00
2023-04-16T15:53:24.773Z,102.63
2023-04-16T15:55:53.570Z,100.38
2023-04-16T15:58:20.986Z,103.05
2023-04-16T16:00:49.856Z,98.60
2023-04-16T16:03:18.626Z,101.85
2023-04-16T16:05:48.838Z,102.57
2023-04-16T16:08:16.242Z,104.38
2023-04-16T16:10:43.108Z,98.22
2023-04-16T16:13:13.153Z,99.90
2023-04-16T16:15:43.470Z,105.80
2023-04-16T16:18:10.292Z,100.20
2023-04-16T16:20:37.105Z,102.13
2023-04-16T16:23:03.850Z,99.93
2023-04-16T16:25:30.587Z,99.78
2023-04-16T16:27:58.729Z,100.63
2023-04-16T16:30:26.291Z,98.38
2023-04-16T16:32:54.136Z,99.25
2023-04-16T16:35:20.836Z,102.18
2023-04-16T16:37:47.489Z,105.50
2023-04-16T16:40:14.199Z,98.93
2023-04-16T16:42:40.866Z,99.30
2023-04-16T16:45:08.170Z,101.03
2023-04-16T16:47:34.981Z,100.03
2023-04-16T16:50:03.332Z,101.00
2023-04-16T16:52:30.081Z,99.90
2023-04-16T16:54:56.849Z,104.13
2023-04-16T16:57:26.959Z,103.90
2023-04-16T16:59:54.550Z,101.53
2023-04-16T17:02:21.380Z,101.45
2023-04-16T17:04:48.032Z,104.97
2023-04-16T17:07:14.662Z,101.68
2023-04-16T17:09:41.296Z,104.43
2023-04-16T17:12:08.080Z,101.80
2023-04-16T17:14:35.501Z,99.07
2023-04-16T17:17:02.269Z,101.55
2023-04-16T17:19:28.967Z,101.45
2023-04-16T17:21:55.707Z,101.88
2023-04-16T17:24:22.381Z,100.30
2023-04-16T17:26:49.036Z,101.55
2023-04-16T17:29:15.744Z,99.80
2023-04-16T17:31:42.424Z,100.38
2023-04-16T17:34:09.113Z,100.18
2023-04-16T17:36:35.786Z,101.05
2023-04-16T17:39:02.616Z,100.65
2023-04-16T17:41:29.284Z,98.38
2023-04-16T17:43:55.949Z,96.93
2023-04-16T17:46:22.744Z,96.68
2023-04-16T17:48:49.461Z,100.20
2023-04-16T17:51:16.438Z,102.65
2023-04-16T17:53:43.551Z,94.82
2023-04-16T17:56:11.186Z,96.50
2023-04-16T17:58:37.907Z,97.13
2023-04-16T18:01:05.230Z,98.13
2023-04-16T18:03:33.213Z,100.13
2023-04-16T18:06:00.110Z,96.75
2023-04-16T18:08:27.364Z,97.78
2023-04-16T18:10:55.300Z,99.28
2023-04-16T18:13:22.226Z,95.15
2023-04-16T18:15:48.884Z,97.35
2023-04-16T18:18:15.580Z,97.05
2023-04-16T18:20:42.311Z,97.85
2023-04-16T18:23:08.998Z,100.28
2023-04-16T18:25:35.872Z,95.38
2023-04-16T18:28:03.887Z,98.47
2023-04-16T18:30:30.824Z,95.85
2023-04-16T18:35:27.104Z,96.22
2023-04-16T18:37:53.711Z,96.70
2023-04-16T18:40:20.439Z,99.20
2023-04-16T18:42:47.073Z,97.05
2023-04-16T18:45:19.617Z,97.07
2023-04-16T18:47:48.036Z,97.55
2023-04-16T18:50:14.665Z,97.95
2023-04-16T18:52:41.512Z,98.22
2023-04-16T18:55:08.545Z,99.47
2023-04-16T18:57:35.198Z,96.25
2023-04-16T19:00:05.467Z,97.03
2023-04-16T19:02:32.500Z,100.60
2023-04-16T19:04:59.161Z,96.40
2023-04-16T19:07:25.765Z,97.63
2023-04-16T19:09:52.395Z,96.68
2023-04-16T19:12:19.792Z,98.38
2023-04-16T19:14:46.406Z,98.60
2023-04-16T19:17:12.990Z,99.72
2023-04-16T19:19:39.583Z,97.20
2023-04-16T19:22:06.261Z,98.85
2023-04-16T19:24:34.227Z,98.32
2023-04-16T19:27:01.135Z,98.82
2023-04-16T19:29:27.893Z,99.65
2023-04-16T19:31:54.511Z,100.90
2023-04-16T19:34:21.126Z,101.22
2023-04-16T19:36:47.756Z,101.78
2023-04-16T19:39:14.390Z,99.32
2023-04-16T19:41:41.022Z,98.38
2023-04-16T19:44:07.786Z,101.30
2023-04-16T19:46:34.483Z,99.68
2023-04-16T19:49:01.086Z,104.65
2023-04-16T19:51:27.791Z,99.65
2023-04-16T19:53:54.485Z,98.82
2023-04-16T19:56:21.104Z,103.93
2023-04-16T19:58:47.774Z,99.47
2023-04-16T20:01:14.536Z,104.70
2023-04-16T20:03:41.298Z,98.88
2023-04-16T20:06:07.960Z,102.65
2023-04-16T20:08:34.723Z,103.40
2023-04-16T20:11:01.554Z,104.05
2023-04-16T20:13:28.220Z,104.93
2023-04-16T20:15:54.975Z,105.68
2023-04-16T20:18:22.131Z,101.75
2023-04-16T20:20:48.882Z,104.65
2023-04-16T20:23:15.638Z,105.07
2023-04-16T20:25:43.078Z,102.22
2023-04-16T20:28:10.071Z,105.55
2023-04-16T20:30:39.795Z,105.35
2023-04-16T20:33:07.128Z,105.53
2023-04-16T20:35:34.923Z,106.80
2023-04-16T20:38:01.539Z,106.53
2023-04-16T20:40:30.363Z,105.10
2023-04-16T20:43:00.398Z,105.10
2023-04-16T20:45:37.874Z,106.20
2023-04-16T20:48:05.452Z,104.88
2023-04-16T20:50:32.188Z,120.68
2023-04-16T20:52:58.839Z,111.50
2023-04-16T20:55:25.678Z,107.45
2023-04-16T20:57:52.330Z,106.65
2023-04-16T21:00:19.172Z,103.80
2023-04-16T21:02:45.932Z,108.38
2023-04-16T21:05:16.226Z,103.13
2023-04-16T21:07:43.042Z,105.47
2023-04-16T21:10:10.768Z,105.32
2023-04-16T21:12:37.507Z,107.93
2023-04-16T21:15:04.880Z,107.40
2023-04-16T21:17:31.764Z,109.93
2023-04-16T21:19:58.452Z,105.45
2023-04-16T21:22:25.331Z,107.93
2023-04-16T21:24:51.920Z,107.70
2023-04-16T21:27:18.581Z,107.30
2023-04-16T21:29:45.180Z,107.60
2023-04-16T21:32:11.867Z,109.63
2023-04-16T21:34:38.475Z,107.85
2023-04-16T21:37:05.548Z,112.22
2023-04-16T21:39:32.229Z,105.20
2023-04-16T21:41:58.866Z,112.32
2023-04-16T21:44:25.503Z,110.82
2023-04-16T21:46:52.205Z,105.50
2023-04-16T21:49:18.990Z,106.22
2023-04-16T21:51:46.203Z,108.55
2023-04-16T21:54:13.008Z,106.80
2023-04-16T21:56:39.630Z,106.82
2023-04-16T21:59:06.315Z,105.15
2023-04-16T22:01:33.105Z,104.93
2023-04-16T22:03:59.942Z,109.13
2023-04-16T22:06:27.136Z,109.22
2023-04-16T22:08:53.752Z,105.53
2023-04-16T22:11:20.705Z,105.50
2023-04-16T22:13:47.790Z,105.43
2023-04-16T22:16:15.464Z,103.90
2023-04-16T22:18:42.732Z,104.13
2023-04-16T22:21:09.383Z,102.28
2023-04-16T22:23:36.036Z,105.85
2023-04-16T22:26:04.065Z,105.53
2023-04-16T22:28:30.712Z,105.45
2023-04-16T22:30:57.348Z,103.10
2023-04-16T22:33:24.010Z,104.97
2023-04-16T22:35:50.672Z,109.45
2023-04-16T22:38:17.305Z,106.40
2023-04-16T22:40:46.660Z,106.22
2023-04-16T22:43:13.288Z,108.07
2023-04-16T22:45:41.011Z,104.85
2023-04-16T22:48:07.799Z,105.85
2023-04-16T22:50:34.436Z,104.85
2023-04-16T22:53:01.042Z,110.47
2023-04-16T22:55:27.682Z,116.22
2023-04-16T22:57:54.315Z,105.25
2023-04-16T23:00:21.207Z,105.90
2023-04-16T23:02:47.948Z,107.70
2023-04-16T23:05:14.713Z,107.07
2023-04-16T23:07:41.351Z,106.20
2023-04-16T23:10:08.666Z,110.45
2023-04-16T23:12:37.340Z,105.15
2023-04-16T23:15:06.253Z,109.25
2023-04-16T23:17:33.680Z,104.85
2023-04-16T23:20:00.596Z,107.45
2023-04-16T23:22:27.549Z,109.85
2023-04-16T23:24:54.204Z,106.32
2023-04-16T23:27:20.884Z,108.50
2023-04-16T23:29:47.468Z,107.93
2023-04-16T23:32:14.100Z,111.88
2023-04-16T23:34:41.638Z,109.45
2023-04-16T23:37:08.816Z,108.45
2023-04-16T23:39:35.528Z,105.45
2023-04-16T23:42:02.176Z,105.10
2023-04-16T23:44:28.960Z,106.88
2023-04-16T23:46:55.592Z,109.70
2023-04-16T23:49:22.258Z,107.70
2023-04-16T23:51:48.852Z,111.07
2023-04-16T23:54:15.545Z,108.50
2023-04-16T23:56:42.140Z,107.47
2023-04-16T23:59:10.979Z,107.05
